sensor_id;sensor_type;location;lat;lon;timestamp;pressure;altitude;pressure_sealevel;temperature;humidity
63691;BME280;49837;57.280;27.070;2023-04-30T00:00:58;99822.55;;;7.29;52.33
63691;BME280;49837;57.280;27.070;2023-04-30T00:01:59;99816.23;;;7.25;52.58
63691;BME280;49837;57.280;27.070;2023-04-30T00:02:59;99818.56;;;7.29;52.19
63691;BME280;49837;57.280;27.070;2023-04-30T00:03:59;99815.42;;;7.28;52.46
63691;BME280;49837;57.280;27.070;2023-04-30T00:05:00;99811.94;;;7.28;52.45
63691;BME280;49837;57.280;27.070;2023-04-30T00:06:00;99814.3;;;7.3;52.06
63691;BME280;49837;57.280;27.070;2023-04-30T00:07:00;99811.66;;;7.29;52.4
63691;BME280;49837;57.280;27.070;2023-04-30T00:08:01;99812.0;;;7.29;51.9
63691;BME280;49837;57.280;27.070;2023-04-30T00:09:01;99816.62;;;7.34;51.83
63691;BME280;49837;57.280;27.070;2023-04-30T00:10:02;99809.91;;;7.33;51.8
63691;BME280;49837;57.280;27.070;2023-04-30T00:11:02;99813.19;;;7.32;52.04
63691;BME280;49837;57.280;27.070;2023-04-30T00:12:03;99810.34;;;7.33;51.84
63691;BME280;49837;57.280;27.070;2023-04-30T00:13:03;99811.46;;;7.35;51.74
63691;BME280;49837;57.280;27.070;2023-04-30T00:14:03;99812.29;;;7.35;51.81
63691;BME280;49837;57.280;27.070;2023-04-30T00:15:04;99812.41;;;7.34;51.84
63691;BME280;49837;57.280;27.070;2023-04-30T00:16:04;99808.06;;;7.31;52.49
63691;BME280;49837;57.280;27.070;2023-04-30T00:17:04;99809.79;;;7.31;52.12
63691;BME280;49837;57.280;27.070;2023-04-30T00:18:05;99806.5;;;7.31;51.9
63691;BME280;49837;57.280;27.070;2023-04-30T00:19:05;99805.28;;;7.38;51.74
63691;BME280;49837;57.280;27.070;2023-04-30T00:20:06;99807.24;;;7.38;51.7
63691;BME280;49837;57.280;27.070;2023-04-30T00:21:06;99801.65;;;7.36;52.12
63691;BME280;49837;57.280;27.070;2023-04-30T00:22:07;99806.27;;;7.3;52.61
63691;BME280;49837;57.280;27.070;2023-04-30T00:23:07;99798.28;;;7.22;53.03
63691;BME280;49837;57.280;27.070;2023-04-30T00:24:07;99802.08;;;7.24;52.96
63691;BME280;49837;57.280;27.070;2023-04-30T00:25:08;99798.2;;;7.24;52.84
63691;BME280;49837;57.280;27.070;2023-04-30T00:26:08;99797.62;;;7.22;52.82
63691;BME280;49837;57.280;27.070;2023-04-30T00:27:08;99796.02;;;7.24;52.35
63691;BME280;49837;57.280;27.070;2023-04-30T00:28:09;99795.73;;;7.29;52.2
63691;BME280;49837;57.280;27.070;2023-04-30T00:29:10;99793.58;;;7.29;52.49
63691;BME280;49837;57.280;27.070;2023-04-30T00:30:10;99795.12;;;7.27;52.75
63691;BME280;49837;57.280;27.070;2023-04-30T00:31:10;99791.99;;;7.27;52.62
63691;BME280;49837;57.280;27.070;2023-04-30T00:32:10;99794.23;;;7.22;53.25
63691;BME280;49837;57.280;27.070;2023-04-30T00:33:10;99793.19;;;7.21;53.09
63691;BME280;49837;57.280;27.070;2023-04-30T00:34:11;99795.27;;;7.2;53.21
63691;BME280;49837;57.280;27.070;2023-04-30T00:35:11;99788.05;;;7.21;53.16
63691;BME280;49837;57.280;27.070;2023-04-30T00:36:12;99790.94;;;7.21;53.1
63691;BME280;49837;57.280;27.070;2023-04-30T00:37:12;99784.58;;;7.19;53.35
63691;BME280;49837;57.280;27.070;2023-04-30T00:38:12;99783.61;;;7.15;53.7
63691;BME280;49837;57.280;27.070;2023-04-30T00:39:13;99782.33;;;7.17;53.27
63691;BME280;49837;57.280;27.070;2023-04-30T00:40:13;99783.59;;;7.17;53.55
63691;BME280;49837;57.280;27.070;2023-04-30T00:41:15;99780.83;;;7.13;53.74
63691;BME280;49837;57.280;27.070;2023-04-30T00:42:14;99778.88;;;7.11;54.0
63691;BME280;49837;57.280;27.070;2023-04-30T00:43:14;99775.42;;;7.1;54.03
63691;BME280;49837;57.280;27.070;2023-04-30T00:44:15;99777.3;;;7.08;53.89
63691;BME280;49837;57.280;27.070;2023-04-30T00:45:15;99776.95;;;7.13;53.5
63691;BME280;49837;57.280;27.070;2023-04-30T00:46:16;99778.97;;;7.16;53.48
63691;BME280;49837;57.280;27.070;2023-04-30T00:47:16;99779.53;;;7.16;53.85
63691;BME280;49837;57.280;27.070;2023-04-30T00:48:17;99778.73;;;7.1;53.96
63691;BME280;49837;57.280;27.070;2023-04-30T00:49:17;99779.38;;;7.11;53.8
63691;BME280;49837;57.280;27.070;2023-04-30T00:50:17;99775.95;;;7.16;53.6
63691;BME280;49837;57.280;27.070;2023-04-30T00:51:18;99777.59;;;7.17;53.41
63691;BME280;49837;57.280;27.070;2023-04-30T00:52:18;99779.41;;;7.17;53.58
63691;BME280;49837;57.280;27.070;2023-04-30T00:53:19;99776.28;;;7.16;53.66
63691;BME280;49837;57.280;27.070;2023-04-30T00:54:19;99778.25;;;7.14;53.72
63691;BME280;49837;57.280;27.070;2023-04-30T00:55:19;99769.81;;;7.13;53.94
63691;BME280;49837;57.280;27.070;2023-04-30T00:56:19;99771.45;;;7.14;53.8
63691;BME280;49837;57.280;27.070;2023-04-30T00:57:20;99769.44;;;7.15;53.71
63691;BME280;49837;57.280;27.070;2023-04-30T00:58:20;99769.16;;;7.16;53.48
63691;BME280;49837;57.280;27.070;2023-04-30T00:59:20;99769.62;;;7.17;53.59
63691;BME280;49837;57.280;27.070;2023-04-30T01:00:21;99766.33;;;7.13;54.1
63691;BME280;49837;57.280;27.070;2023-04-30T01:01:25;99764.36;;;7.12;53.77
63691;BME280;49837;57.280;27.070;2023-04-30T01:02:23;99764.8;;;7.15;53.43
63691;BME280;49837;57.280;27.070;2023-04-30T01:03:23;99767.05;;;7.18;53.52
63691;BME280;49837;57.280;27.070;2023-04-30T01:04:24;99761.5;;;7.14;53.8
63691;BME280;49837;57.280;27.070;2023-04-30T01:05:24;99755.05;;;7.19;53.52
63691;BME280;49837;57.280;27.070;2023-04-30T01:06:24;99757.85;;;7.2;53.57
63691;BME280;49837;57.280;27.070;2023-04-30T01:07:25;99760.2;;;7.17;53.96
63691;BME280;49837;57.280;27.070;2023-04-30T01:08:25;99758.95;;;7.12;54.21
63691;BME280;49837;57.280;27.070;2023-04-30T01:09:26;99757.59;;;7.11;54.04
63691;BME280;49837;57.280;27.070;2023-04-30T01:10:30;99757.56;;;7.12;54.2
63691;BME280;49837;57.280;27.070;2023-04-30T01:11:48;99758.59;;;7.1;54.25
63691;BME280;49837;57.280;27.070;2023-04-30T01:12:54;99756.11;;;7.13;53.99
63691;BME280;49837;57.280;27.070;2023-04-30T01:13:43;99760.81;;;7.15;54.1
63691;BME280;49837;57.280;27.070;2023-04-30T01:15:45;99757.44;;;7.1;54.26
63691;BME280;49837;57.280;27.070;2023-04-30T01:19:51;99748.58;;;7.16;53.95
63691;BME280;49837;57.280;27.070;2023-04-30T01:21:03;99747.06;;;7.14;54.24
63691;BME280;49837;57.280;27.070;2023-04-30T01:22:02;99743.78;;;7.17;54.03
63691;BME280;49837;57.280;27.070;2023-04-30T01:28:21;99737.42;;;7.15;54.13
63691;BME280;49837;57.280;27.070;2023-04-30T01:29:22;99733.83;;;7.17;54.17
63691;BME280;49837;57.280;27.070;2023-04-30T01:30:22;99739.38;;;7.21;53.93
63691;BME280;49837;57.280;27.070;2023-04-30T01:31:23;99732.92;;;7.19;54.27
63691;BME280;49837;57.280;27.070;2023-04-30T01:32:22;99736.41;;;7.12;54.54
63691;BME280;49837;57.280;27.070;2023-04-30T01:33:22;99734.04;;;7.14;54.38
63691;BME280;49837;57.280;27.070;2023-04-30T01:34:23;99731.83;;;7.13;54.65
63691;BME280;49837;57.280;27.070;2023-04-30T01:35:57;99732.38;;;7.14;54.54
63691;BME280;49837;57.280;27.070;2023-04-30T01:40:58;99726.43;;;7.13;54.85
63691;BME280;49837;57.280;27.070;2023-04-30T01:53:20;99698.73;;;7.24;54.66
63691;BME280;49837;57.280;27.070;2023-04-30T01:57:31;99693.78;;;7.23;54.85
63691;BME280;49837;57.280;27.070;2023-04-30T01:58:29;99695.7;;;7.26;54.73
63691;BME280;49837;57.280;27.070;2023-04-30T01:59:32;99693.16;;;7.25;55.02
63691;BME280;49837;57.280;27.070;2023-04-30T02:00:30;99691.98;;;7.26;54.76
63691;BME280;49837;57.280;27.070;2023-04-30T02:01:32;99693.38;;;7.29;54.43
63691;BME280;49837;57.280;27.070;2023-04-30T02:02:31;99689.25;;;7.32;54.5
63691;BME280;49837;57.280;27.070;2023-04-30T02:03:32;99686.62;;;7.31;54.58
63691;BME280;49837;57.280;27.070;2023-04-30T02:04:32;99685.41;;;7.29;54.75
63691;BME280;49837;57.280;27.070;2023-04-30T02:05:32;99690.3;;;7.3;54.52
63691;BME280;49837;57.280;27.070;2023-04-30T02:06:33;99697.08;;;7.31;54.46
63691;BME280;49837;57.280;27.070;2023-04-30T02:07:42;99699.58;;;7.38;54.19
63691;BME280;49837;57.280;27.070;2023-04-30T02:08:35;99698.75;;;7.41;54.24
63691;BME280;49837;57.280;27.070;2023-04-30T02:09:35;99700.17;;;7.4;54.45
63691;BME280;49837;57.280;27.070;2023-04-30T02:10:35;99696.79;;;7.36;54.52
63691;BME280;49837;57.280;27.070;2023-04-30T02:11:36;99698.14;;;7.35;55.03
63691;BME280;49837;57.280;27.070;2023-04-30T02:12:36;99689.39;;;7.36;54.61
63691;BME280;49837;57.280;27.070;2023-04-30T02:13:37;99690.34;;;7.39;54.63
63691;BME280;49837;57.280;27.070;2023-04-30T02:14:37;99683.58;;;7.36;54.77
63691;BME280;49837;57.280;27.070;2023-04-30T02:15:37;99682.7;;;7.35;54.93
63691;BME280;49837;57.280;27.070;2023-04-30T02:16:38;99672.02;;;7.34;55.08
63691;BME280;49837;57.280;27.070;2023-04-30T02:17:38;99675.44;;;7.27;55.48
63691;BME280;49837;57.280;27.070;2023-04-30T02:18:38;99673.3;;;7.29;55.34
63691;BME280;49837;57.280;27.070;2023-04-30T02:19:39;99672.38;;;7.33;55.13
63691;BME280;49837;57.280;27.070;2023-04-30T02:20:39;99664.6;;;7.33;54.99
63691;BME280;49837;57.280;27.070;2023-04-30T02:21:40;99664.86;;;7.35;54.76
63691;BME280;49837;57.280;27.070;2023-04-30T02:22:40;99665.22;;;7.39;54.84
63691;BME280;49837;57.280;27.070;2023-04-30T02:23:41;99663.48;;;7.34;55.35
63691;BME280;49837;57.280;27.070;2023-04-30T02:24:41;99661.8;;;7.31;55.3
63691;BME280;49837;57.280;27.070;2023-04-30T02:25:41;99666.27;;;7.29;55.47
63691;BME280;49837;57.280;27.070;2023-04-30T02:26:42;99663.94;;;7.25;55.86
63691;BME280;49837;57.280;27.070;2023-04-30T02:27:42;99662.61;;;7.25;55.9
63691;BME280;49837;57.280;27.070;2023-04-30T02:28:42;99666.65;;;7.24;55.73
63691;BME280;49837;57.280;27.070;2023-04-30T02:29:43;99662.55;;;7.25;55.53
63691;BME280;49837;57.280;27.070;2023-04-30T02:30:43;99658.44;;;7.3;55.04
63691;BME280;49837;57.280;27.070;2023-04-30T02:31:43;99658.66;;;7.35;54.68
63691;BME280;49837;57.280;27.070;2023-04-30T02:32:44;99657.89;;;7.36;55.05
63691;BME280;49837;57.280;27.070;2023-04-30T02:33:44;99660.25;;;7.28;55.49
63691;BME280;49837;57.280;27.070;2023-04-30T02:34:45;99654.39;;;7.29;55.1
63691;BME280;49837;57.280;27.070;2023-04-30T02:35:45;99652.35;;;7.32;55.12
63691;BME280;49837;57.280;27.070;2023-04-30T02:36:45;99650.71;;;7.3;55.28
63691;BME280;49837;57.280;27.070;2023-04-30T02:37:46;99654.11;;;7.24;55.61
63691;BME280;49837;57.280;27.070;2023-04-30T02:38:46;99647.89;;;7.3;55.27
63691;BME280;49837;57.280;27.070;2023-04-30T02:39:47;99645.0;;;7.34;55.03
63691;BME280;49837;57.280;27.070;2023-04-30T02:40:47;99645.59;;;7.33;55.29
63691;BME280;49837;57.280;27.070;2023-04-30T02:41:47;99644.86;;;7.32;55.33
63691;BME280;49837;57.280;27.070;2023-04-30T02:42:48;99639.95;;;7.33;55.2
63691;BME280;49837;57.280;27.070;2023-04-30T02:43:48;99644.5;;;7.33;55.29
63691;BME280;49837;57.280;27.070;2023-04-30T02:44:48;99645.92;;;7.33;55.46
63691;BME280;49837;57.280;27.070;2023-04-30T02:45:49;99644.97;;;7.34;55.19
63691;BME280;49837;57.280;27.070;2023-04-30T02:46:49;99646.2;;;7.35;55.28
63691;BME280;49837;57.280;27.070;2023-04-30T02:47:50;99653.87;;;7.34;55.45
63691;BME280;49837;57.280;27.070;2023-04-30T02:48:51;99649.58;;;7.29;55.63
63691;BME280;49837;57.280;27.070;2023-04-30T02:49:50;99648.3;;;7.31;55.44
63691;BME280;49837;57.280;27.070;2023-04-30T02:50:51;99652.25;;;7.32;55.39
63691;BME280;49837;57.280;27.070;2023-04-30T02:51:52;99656.53;;;7.27;55.95
63691;BME280;49837;57.280;27.070;2023-04-30T02:52:52;99653.12;;;7.2;56.36
63691;BME280;49837;57.280;27.070;2023-04-30T02:53:52;99658.09;;;7.13;56.28
63691;BME280;49837;57.280;27.070;2023-04-30T02:54:52;99661.67;;;7.19;55.8
63691;BME280;49837;57.280;27.070;2023-04-30T02:55:53;99665.39;;;7.21;55.82
63691;BME280;49837;57.280;27.070;2023-04-30T02:56:53;99664.44;;;7.25;55.74
63691;BME280;49837;57.280;27.070;2023-04-30T02:57:53;99660.25;;;7.24;56.08
63691;BME280;49837;57.280;27.070;2023-04-30T02:58:54;99660.5;;;7.27;55.55
63691;BME280;49837;57.280;27.070;2023-04-30T02:59:54;99661.14;;;7.31;55.78
63691;BME280;49837;57.280;27.070;2023-04-30T03:00:55;99659.67;;;7.27;56.37
63691;BME280;49837;57.280;27.070;2023-04-30T03:01:55;99663.25;;;7.3;55.83
63691;BME280;49837;57.280;27.070;2023-04-30T03:02:55;99664.48;;;7.34;55.71
63691;BME280;49837;57.280;27.070;2023-04-30T03:03:56;99664.64;;;7.33;56.07
63691;BME280;49837;57.280;27.070;2023-04-30T03:04:56;99663.47;;;7.28;56.77
63691;BME280;49837;57.280;27.070;2023-04-30T03:05:57;99666.08;;;7.26;56.31
63691;BME280;49837;57.280;27.070;2023-04-30T03:06:57;99667.52;;;7.25;56.77
63691;BME280;49837;57.280;27.070;2023-04-30T03:07:57;99662.69;;;7.26;56.62
63691;BME280;49837;57.280;27.070;2023-04-30T03:08:58;99660.94;;;7.27;56.8
63691;BME280;49837;57.280;27.070;2023-04-30T03:09:58;99661.76;;;7.3;56.69
63691;BME280;49837;57.280;27.070;2023-04-30T03:10:59;99666.14;;;7.3;56.77
63691;BME280;49837;57.280;27.070;2023-04-30T03:11:59;99659.79;;;7.33;56.31
63691;BME280;49837;57.280;27.070;2023-04-30T03:12:59;99658.98;;;7.35;56.24
63691;BME280;49837;57.280;27.070;2023-04-30T03:14:00;99655.06;;;7.35;56.68
63691;BME280;49837;57.280;27.070;2023-04-30T03:15:00;99657.88;;;7.29;57.08
63691;BME280;49837;57.280;27.070;2023-04-30T03:16:02;99657.35;;;7.27;57.0
63691;BME280;49837;57.280;27.070;2023-04-30T03:17:01;99657.02;;;7.31;56.56
63691;BME280;49837;57.280;27.070;2023-04-30T03:18:01;99657.77;;;7.33;56.49
63691;BME280;49837;57.280;27.070;2023-04-30T03:19:02;99662.11;;;7.32;56.69
63691;BME280;49837;57.280;27.070;2023-04-30T03:20:02;99654.81;;;7.32;56.79
63691;BME280;49837;57.280;27.070;2023-04-30T03:21:03;99658.56;;;7.32;56.93
63691;BME280;49837;57.280;27.070;2023-04-30T03:22:03;99661.61;;;7.33;57.33
63691;BME280;49837;57.280;27.070;2023-04-30T03:23:03;99656.66;;;7.32;57.21
63691;BME280;49837;57.280;27.070;2023-04-30T03:24:04;99658.91;;;7.31;57.19
63691;BME280;49837;57.280;27.070;2023-04-30T03:25:05;99650.67;;;7.29;57.42
63691;BME280;49837;57.280;27.070;2023-04-30T03:26:04;99656.85;;;7.27;57.44
63691;BME280;49837;57.280;27.070;2023-04-30T03:27:05;99654.6;;;7.27;57.26
63691;BME280;49837;57.280;27.070;2023-04-30T03:28:05;99649.7;;;7.25;57.55
63691;BME280;49837;57.280;27.070;2023-04-30T03:29:05;99664.56;;;7.27;57.37
63691;BME280;49837;57.280;27.070;2023-04-30T03:30:07;99658.23;;;7.32;57.38
63691;BME280;49837;57.280;27.070;2023-04-30T03:31:06;99660.81;;;7.31;57.42
63691;BME280;49837;57.280;27.070;2023-04-30T03:32:07;99657.34;;;7.34;57.15
63691;BME280;49837;57.280;27.070;2023-04-30T03:33:07;99651.38;;;7.34;57.63
63691;BME280;49837;57.280;27.070;2023-04-30T03:34:08;99660.66;;;7.34;57.69
63691;BME280;49837;57.280;27.070;2023-04-30T03:35:08;99656.78;;;7.33;57.59
63691;BME280;49837;57.280;27.070;2023-04-30T03:36:08;99644.72;;;7.28;58.48
63691;BME280;49837;57.280;27.070;2023-04-30T03:37:09;99645.7;;;7.26;58.18
63691;BME280;49837;57.280;27.070;2023-04-30T03:38:09;99655.62;;;7.23;58.87
63691;BME280;49837;57.280;27.070;2023-04-30T03:39:09;99654.26;;;7.22;59.03
63691;BME280;49837;57.280;27.070;2023-04-30T03:40:10;99651.93;;;7.25;58.45
63691;BME280;49837;57.280;27.070;2023-04-30T03:41:11;99645.24;;;7.27;58.51
63691;BME280;49837;57.280;27.070;2023-04-30T03:42:11;99651.36;;;7.28;58.21
63691;BME280;49837;57.280;27.070;2023-04-30T03:43:11;99656.83;;;7.28;58.98
63691;BME280;49837;57.280;27.070;2023-04-30T03:44:12;99641.05;;;7.29;58.35
63691;BME280;49837;57.280;27.070;2023-04-30T03:45:12;99642.09;;;7.34;58.11
63691;BME280;49837;57.280;27.070;2023-04-30T03:46:12;99653.48;;;7.36;58.55
63691;BME280;49837;57.280;27.070;2023-04-30T03:47:13;99654.53;;;7.3;59.96
63691;BME280;49837;57.280;27.070;2023-04-30T03:48:13;99656.47;;;7.29;59.86
63691;BME280;49837;57.280;27.070;2023-04-30T03:49:14;99667.95;;;7.28;59.63
63691;BME280;49837;57.280;27.070;2023-04-30T03:50:16;99674.48;;;7.32;58.94
63691;BME280;49837;57.280;27.070;2023-04-30T03:51:15;99676.16;;;7.34;58.76
63691;BME280;49837;57.280;27.070;2023-04-30T03:52:15;99679.08;;;7.34;59.4
63691;BME280;49837;57.280;27.070;2023-04-30T03:53:15;99678.47;;;7.32;59.46
63691;BME280;49837;57.280;27.070;2023-04-30T03:54:16;99673.09;;;7.28;60.25
63691;BME280;49837;57.280;27.070;2023-04-30T03:55:16;99669.06;;;7.23;60.79
63691;BME280;49837;57.280;27.070;2023-04-30T03:56:16;99669.53;;;7.24;59.96
63691;BME280;49837;57.280;27.070;2023-04-30T03:57:17;99659.42;;;7.24;60.0
63691;BME280;49837;57.280;27.070;2023-04-30T03:58:17;99666.93;;;7.29;59.72
63691;BME280;49837;57.280;27.070;2023-04-30T03:59:18;99671.38;;;7.3;59.77
63691;BME280;49837;57.280;27.070;2023-04-30T04:00:18;99671.56;;;7.36;59.87
63691;BME280;49837;57.280;27.070;2023-04-30T04:01:18;99667.91;;;7.39;59.11
63691;BME280;49837;57.280;27.070;2023-04-30T04:02:19;99669.68;;;7.45;58.97
63691;BME280;49837;57.280;27.070;2023-04-30T04:03:19;99670.6;;;7.48;59.64
63691;BME280;49837;57.280;27.070;2023-04-30T04:04:20;99669.61;;;7.44;60.34
63691;BME280;49837;57.280;27.070;2023-04-30T04:05:20;99674.64;;;7.42;60.31
63691;BME280;49837;57.280;27.070;2023-04-30T04:06:21;99669.8;;;7.4;60.48
63691;BME280;49837;57.280;27.070;2023-04-30T04:07:21;99666.88;;;7.34;61.79
63691;BME280;49837;57.280;27.070;2023-04-30T04:08:22;99671.19;;;7.31;60.71
63691;BME280;49837;57.280;27.070;2023-04-30T04:09:22;99671.47;;;7.4;59.62
63691;BME280;49837;57.280;27.070;2023-04-30T04:10:23;99676.78;;;7.4;60.57
63691;BME280;49837;57.280;27.070;2023-04-30T04:11:23;99681.14;;;7.38;61.35
63691;BME280;49837;57.280;27.070;2023-04-30T04:12:23;99676.26;;;7.38;60.38
63691;BME280;49837;57.280;27.070;2023-04-30T04:13:24;99681.31;;;7.39;60.52
63691;BME280;49837;57.280;27.070;2023-04-30T04:14:24;99677.09;;;7.38;61.0
63691;BME280;49837;57.280;27.070;2023-04-30T04:15:24;99678.03;;;7.36;61.35
63691;BME280;49837;57.280;27.070;2023-04-30T04:16:25;99677.14;;;7.36;61.05
63691;BME280;49837;57.280;27.070;2023-04-30T04:17:25;99682.18;;;7.39;60.99
63691;BME280;49837;57.280;27.070;2023-04-30T04:18:26;99685.03;;;7.35;61.14
63691;BME280;49837;57.280;27.070;2023-04-30T04:19:26;99682.56;;;7.3;61.49
63691;BME280;49837;57.280;27.070;2023-04-30T04:20:26;99689.95;;;7.21;63.01
63691;BME280;49837;57.280;27.070;2023-04-30T04:21:27;99684.7;;;7.14;63.59
63691;BME280;49837;57.280;27.070;2023-04-30T04:22:27;99685.84;;;7.22;61.98
63691;BME280;49837;57.280;27.070;2023-04-30T04:23:28;99686.34;;;7.29;61.53
63691;BME280;49837;57.280;27.070;2023-04-30T04:24:28;99689.34;;;7.35;61.19
63691;BME280;49837;57.280;27.070;2023-04-30T04:25:28;99692.99;;;7.35;61.52
63691;BME280;49837;57.280;27.070;2023-04-30T04:26:29;99698.16;;;7.34;61.51
63691;BME280;49837;57.280;27.070;2023-04-30T04:27:29;99703.02;;;7.32;61.96
63691;BME280;49837;57.280;27.070;2023-04-30T04:28:30;99708.84;;;7.31;62.28
63691;BME280;49837;57.280;27.070;2023-04-30T04:29:30;99711.74;;;7.32;62.1
63691;BME280;49837;57.280;27.070;2023-04-30T04:30:30;99710.58;;;7.31;62.43
63691;BME280;49837;57.280;27.070;2023-04-30T04:31:31;99708.56;;;7.29;63.15
63691;BME280;49837;57.280;27.070;2023-04-30T04:32:31;99711.37;;;7.27;63.16
63691;BME280;49837;57.280;27.070;2023-04-30T04:33:31;99710.59;;;7.25;63.5
63691;BME280;49837;57.280;27.070;2023-04-30T04:34:32;99706.44;;;7.21;63.87
63691;BME280;49837;57.280;27.070;2023-04-30T04:35:32;99706.83;;;7.14;64.6
63691;BME280;49837;57.280;27.070;2023-04-30T04:36:33;99711.43;;;7.13;65.57
63691;BME280;49837;57.280;27.070;2023-04-30T04:37:33;99711.05;;;7.04;65.78
63691;BME280;49837;57.280;27.070;2023-04-30T04:38:33;99718.55;;;7.06;64.6
63691;BME280;49837;57.280;27.070;2023-04-30T04:39:34;99725.7;;;7.01;66.11
63691;BME280;49837;57.280;27.070;2023-04-30T04:40:34;99729.75;;;6.95;67.41
63691;BME280;49837;57.280;27.070;2023-04-30T04:41:34;99734.76;;;6.89;68.31
63691;BME280;49837;57.280;27.070;2023-04-30T04:42:35;99740.18;;;6.91;66.92
63691;BME280;49837;57.280;27.070;2023-04-30T04:43:35;99739.31;;;6.93;66.99
63691;BME280;49837;57.280;27.070;2023-04-30T04:44:36;99746.91;;;6.91;67.69
63691;BME280;49837;57.280;27.070;2023-04-30T04:45:36;99743.36;;;6.87;68.17
63691;BME280;49837;57.280;27.070;2023-04-30T04:46:36;99748.89;;;6.75;69.88
63691;BME280;49837;57.280;27.070;2023-04-30T04:47:37;99756.7;;;6.69;70.95
63691;BME280;49837;57.280;27.070;2023-04-30T04:48:37;99755.6;;;6.64;72.54
63691;BME280;49837;57.280;27.070;2023-04-30T04:49:38;99759.7;;;6.62;72.94
63691;BME280;49837;57.280;27.070;2023-04-30T04:50:38;99752.45;;;6.46;74.15
63691;BME280;49837;57.280;27.070;2023-04-30T04:51:38;99758.19;;;6.46;74.6
63691;BME280;49837;57.280;27.070;2023-04-30T04:52:39;99754.5;;;6.35;75.87
63691;BME280;49837;57.280;27.070;2023-04-30T04:53:39;99760.62;;;6.4;75.13
63691;BME280;49837;57.280;27.070;2023-04-30T04:54:40;99766.78;;;6.25;79.08
63691;BME280;49837;57.280;27.070;2023-04-30T04:55:40;99765.95;;;6.16;79.89
63691;BME280;49837;57.280;27.070;2023-04-30T04:56:40;99771.83;;;6.06;80.9
63691;BME280;49837;57.280;27.070;2023-04-30T04:57:41;99775.19;;;5.98;81.95
63691;BME280;49837;57.280;27.070;2023-04-30T04:58:41;99770.17;;;5.99;83.05
63691;BME280;49837;57.280;27.070;2023-04-30T04:59:41;99774.83;;;6.0;83.2
63691;BME280;49837;57.280;27.070;2023-04-30T05:00:43;99776.05;;;5.96;84.39
63691;BME280;49837;57.280;27.070;2023-04-30T05:01:42;99780.8;;;5.88;85.44
63691;BME280;49837;57.280;27.070;2023-04-30T05:02:43;99775.72;;;5.85;86.54
63691;BME280;49837;57.280;27.070;2023-04-30T05:03:43;99772.15;;;5.82;86.89
63691;BME280;49837;57.280;27.070;2023-04-30T05:04:44;99768.72;;;5.79;87.96
63691;BME280;49837;57.280;27.070;2023-04-30T05:05:44;99768.33;;;5.81;88.14
63691;BME280;49837;57.280;27.070;2023-04-30T05:06:44;99773.2;;;5.73;88.35
63691;BME280;49837;57.280;27.070;2023-04-30T05:07:45;99769.06;;;5.77;87.93
63691;BME280;49837;57.280;27.070;2023-04-30T05:08:45;99767.03;;;5.74;88.61
63691;BME280;49837;57.280;27.070;2023-04-30T05:09:45;99770.91;;;5.8;88.32
63691;BME280;49837;57.280;27.070;2023-04-30T05:10:46;99769.39;;;5.73;89.64
63691;BME280;49837;57.280;27.070;2023-04-30T05:11:46;99768.38;;;5.6;90.7
63691;BME280;49837;57.280;27.070;2023-04-30T05:12:46;99765.81;;;5.57;91.36
63691;BME280;49837;57.280;27.070;2023-04-30T05:13:47;99766.17;;;5.63;90.65
63691;BME280;49837;57.280;27.070;2023-04-30T05:14:47;99764.77;;;5.61;90.73
63691;BME280;49837;57.280;27.070;2023-04-30T05:15:51;99766.96;;;5.64;90.84
63691;BME280;49837;57.280;27.070;2023-04-30T05:16:49;99764.84;;;5.57;91.69
63691;BME280;49837;57.280;27.070;2023-04-30T05:17:49;99760.81;;;5.45;93.2
63691;BME280;49837;57.280;27.070;2023-04-30T05:18:50;99760.85;;;5.42;93.9
63691;BME280;49837;57.280;27.070;2023-04-30T05:19:51;99765.42;;;5.46;94.17
63691;BME280;49837;57.280;27.070;2023-04-30T05:20:51;99766.11;;;5.55;93.73
63691;BME280;49837;57.280;27.070;2023-04-30T05:21:51;99764.81;;;5.53;94.29
63691;BME280;49837;57.280;27.070;2023-04-30T05:22:51;99762.52;;;5.52;94.68
63691;BME280;49837;57.280;27.070;2023-04-30T05:23:52;99762.16;;;5.54;94.55
63691;BME280;49837;57.280;27.070;2023-04-30T05:24:52;99761.31;;;5.49;94.75
63691;BME280;49837;57.280;27.070;2023-04-30T05:25:52;99763.95;;;5.51;95.13
63691;BME280;49837;57.280;27.070;2023-04-30T05:26:53;99764.38;;;5.55;95.05
63691;BME280;49837;57.280;27.070;2023-04-30T05:27:53;99766.91;;;5.51;95.15
63691;BME280;49837;57.280;27.070;2023-04-30T05:28:54;99761.84;;;5.48;95.54
63691;BME280;49837;57.280;27.070;2023-04-30T05:29:54;99758.11;;;5.37;96.25
63691;BME280;49837;57.280;27.070;2023-04-30T05:30:54;99763.41;;;5.37;96.38
63691;BME280;49837;57.280;27.070;2023-04-30T05:31:55;99754.77;;;5.4;96.47
63691;BME280;49837;57.280;27.070;2023-04-30T05:32:56;99757.7;;;5.41;96.3
63691;BME280;49837;57.280;27.070;2023-04-30T05:33:55;99757.22;;;5.42;96.46
63691;BME280;49837;57.280;27.070;2023-04-30T05:34:56;99752.32;;;5.38;96.4
63691;BME280;49837;57.280;27.070;2023-04-30T05:35:56;99756.81;;;5.46;95.49
63691;BME280;49837;57.280;27.070;2023-04-30T05:36:57;99749.51;;;5.48;95.54
63691;BME280;49837;57.280;27.070;2023-04-30T05:37:57;99754.07;;;5.42;95.78
63691;BME280;49837;57.280;27.070;2023-04-30T05:38:57;99750.27;;;5.41;95.58
63691;BME280;49837;57.280;27.070;2023-04-30T05:39:58;99748.12;;;5.48;95.38
63691;BME280;49837;57.280;27.070;2023-04-30T05:40:59;99742.27;;;5.5;95.34
63691;BME280;49837;57.280;27.070;2023-04-30T05:41:58;99745.33;;;5.4;95.46
63691;BME280;49837;57.280;27.070;2023-04-30T05:42:59;99745.75;;;5.44;95.33
63691;BME280;49837;57.280;27.070;2023-04-30T05:43:59;99750.05;;;5.44;95.6
63691;BME280;49837;57.280;27.070;2023-04-30T05:45:00;99746.34;;;5.49;95.8
63691;BME280;49837;57.280;27.070;2023-04-30T05:46:00;99749.31;;;5.54;95.6
63691;BME280;49837;57.280;27.070;2023-04-30T05:47:00;99744.73;;;5.46;95.74
63691;BME280;49837;57.280;27.070;2023-04-30T05:48:01;99745.11;;;5.54;95.36
63691;BME280;49837;57.280;27.070;2023-04-30T05:49:01;99742.5;;;5.52;95.5
63691;BME280;49837;57.280;27.070;2023-04-30T05:50:03;99741.16;;;5.53;95.37
63691;BME280;49837;57.280;27.070;2023-04-30T05:51:02;99743.54;;;5.43;95.65